Strona główna
METAR-TAF:

METAR-TAF

Lotnisko :

Porter County Municipal Airport

Valparaiso, Indiana, Stany Zjednoczone

Szerokość geograficzna: 41-27-11N, Długość geograficzna: 086-59-53W, wysokość: 234 m

Aktualna obserwacja pogody

Raport powstał 1 godzina i 7 minut temu, godzina 06:56 UTC
Wiatr 7 kt od zachód
Temperatura -8°C
Wilgotność 79%
Ciśnienie 1031 hPa
Widzialność: 16.1 km
Zachmurzenie całkowite na wysokości 4600 ft

METAR: KVPZ 200656Z AUTO 28007KT 10SM OVC046 M08/M11 A3045 RMK AO2 SLP327 T10781111 $

czas: 02:03 (08:03 UTC)


TAF: brakujący

Obserwacja i prognoza pogody dla ponad 4000 lotnisk (raport METAR i TAF).

Dostępne stacje oznaczono żółtymi i czerwonymi punktami na mapie.

Najedź kursorem aby zobaczyć nazwę stacji.

Kliknij aby zobaczyć obserwacje i prognozy pogody.

Aby zmienić mapę: kliknij na zielony przycisk z czarnym krzyżykiem, aby powiększyć; na zielony przycisk z myślnikiem, aby pomniejszyć; na zielone strzałki, aby przejść do map sąsiednich.


METAR-TAF: